NCAR-RAP Real-Time Weather Data

Output produced by METARs form (26 May 2022  07:30 UTC)
found at http://weather.rap.ucar.edu/surface/
 
KAUS 260653Z 24004KT 10SM CLR 14/13 A2996 RMK AO2 SLP139 T01440133
KAUS 260553Z 00000KT 10SM CLR 16/14 A2996 RMK AO2 SLP140 T01560144 10272 20144 402830144 50010
KAUS 260453Z 00000KT 10SM CLR 16/14 A2996 RMK AO2 SLP142 T01560139
KAUS 260353Z 00000KT 10SM CLR 17/15 A2995 RMK AO2 SLP138 T01720150
KAUS 260253Z 00000KT 10SM CLR 17/13 A2993 RMK AO2 SLP131 T01720128 53028
KAUS 260153Z 00000KT 10SM CLR 18/13 A2990 RMK AO2 SLP120 T01830128
KAUS 260053Z 33004KT 10SM CLR 24/12 A2987 RMK AO2 SLP108 T02390117
KAUS 252353Z 33007KT 10SM CLR 27/08 A2985 RMK AO2 SLP099 T02720078 10283 20239 55002
KAUS 252253Z 33008G15KT 10SM CLR 28/09 A2984 RMK AO2 SLP095 T02780089
KAUS 252153Z VRB06KT 10SM FEW100 28/09 A2984 RMK AO2 SLP098 T02780094
KAUS 252053Z 33009KT 10SM FEW100 28/11 A2985 RMK AO2 SLP101 T02780106 58011
KAUS 251953Z 31009G19KT 10SM FEW100 27/10 A2988 RMK AO2 SLP110 T02670100
KAUS 251853Z 32010G20KT 10SM FEW100 26/11 A2989 RMK AO2 PK WND 33027/1819 SLP114 T02560111
KAUS 251753Z 33014G25KT 290V360 10SM FEW046 FEW300 24/11 A2989 RMK AO2 SLP114 T02390111 10244 20172 53003
KAUS 251653Z 32014G22KT 10SM FEW032 FEW300 22/12 A2988 RMK AO2 SLP111 T02220122
KAUS 251553Z 33009G18KT 10SM FEW023 SCT300 21/14 A2988 RMK AO2 SLP109 T02110139 $
KAUS 251453Z 32010G18KT 6SM HZ SCT020 SCT300 19/14 A2988 RMK AO2 SLP110 T01940144 51023
KAUS 251353Z 30009KT 10SM SCT017 BKN250 BKN300 18/14 A2987 RMK AO2 SLP108 T01780144
KAUS 251253Z 29007KT 10SM FEW014 BKN250 BKN300 17/15 A2985 RMK AO2 SLP100 T01720150
KAUS 251153Z 32004KT 10SM FEW016 BKN200 17/16 A2981 RMK AO2 SLP086 60023 70104 T01720156 10172 20167 51039
KAUS 251053Z 28005KT 10SM FEW015 SCT200 17/16 A2979 RMK AO2 SLP082 T01670156
KAUS 250953Z 25007KT 10SM FEW011 OVC200 17/16 A2981 RMK AO2 SLP086 T01670161
KAUS 250941Z 26008G17KT 10SM SCT011 OVC200 17/16 A2980 RMK AO2 T01670161
KAUS 250927Z 30011G24KT 10SM BKN010 17/16 A2978 RMK AO2 PRESRR T01670156
KAUS 250853Z 12007KT 10SM FEW020 FEW080 OVC200 17/16 A2969 RMK AO2 RAE34 SLP047 P0000 60023 T01670161 58055
KAUS 250753Z 10007KT 10SM -RA FEW042 SCT075 BKN110 17/16 A2979 RMK AO2 SLP078 P0012 T01670161
KAUS 250653Z 00000KT 9SM RA BKN075 BKN090 OVC110 17/16 A2990 RMK AO2 LTG DSNT NE TSE10 SLP116 TS MOV E P0011 T01670161
KAUS 250616Z 04005KT 10SM -RA FEW055 SCT070 OVC090 17/16 A2988 RMK AO2 LTG DSNT ALQDS TSE10 TS MOV E P0002 T01720156
KAUS 250553Z 02009KT 4SM -TSRA BR SCT050CB BKN070 OVC090 17/16 A2986 RMK AO2 PK WND 35035/0516 LTG DSNT ALQDS SLP103 CONS LTGICCC NE-E-SE TS NE-E-SE MOV E P0037 60081 T01720161 10294 20161 403060161 53067
KAUS 250518Z 34019G35KT 4SM +TSRA BR FEW013 OVC040CB 17/16 A2982 RMK AO2 PK WND 35035/0516 LTG DSNT ALQDS CONS LTGICCC NE-E-SE TS NE-E-SE MOV E P0025 T01670156
KAUS 250453Z 32018G34KT 1 1/4SM R18L/4000VP6000FT +TSRA BR FEW007 BKN015 OVC037CB 16/16 A2979 RMK AO2 PK WND 33053/0437 LTG DSNT ALQDS RAB28 TSB35 SLP081 CONS LTGICCC OHD TS OHD MOV E P0044 T01610156
KAUS 250444Z 32021G53KT 1SM R18L/4000VP6000FT +TSRA BR FEW007 BKN014 OVC037CB 16/16 A2973 RMK AO2 PK WND 33053/0437 LTG DSNT ALQDS RAB28 TSB35 CONS LTGICCC OHD TS OHD MOV E P0024 T01610156
KAUS 250436Z 34032G52KT 2SM R18L/4500VP6000FT +TSRA BR FEW014 BKN037CB OVC046 17/16 A2979 RMK AO2 PK WND 34052/0436 LTG DSNT ALQDS RAB28 TSB35 FRQ LTGICCC W-N TS W-N MOV E P0007 T01720156
KAUS 250353Z 07009KT 10SM OVC050 26/18 A2970 RMK AO2 LTG DSNT W-NE SLP047 OCNL LTG DSNT W-N T02610183
KAUS 250253Z 10008KT 10SM FEW050 FEW070 26/18 A2966 RMK AO2 SLP033 OCNL LTG DSNT W-NW T02610178 50012
KAUS 250153Z 10007KT 10SM SCT075 BKN150 27/18 A2966 RMK AO2 SLP033 T02670178
KAUS 250053Z 16011G19KT 10SM BKN070 28/17 A2964 RMK AO2 SLP028 T02830172
KAUS 242353Z 17013KT 10SM FEW075 FEW200 29/16 A2962 RMK AO2 SLP020 T02940161 10306 20283 56024
KAUS 242253Z 16012G21KT 10SM FEW048 SCT200 29/17 A2963 RMK AO2 SLP024 T02940172
KAUS 242153Z 17014G20KT 10SM BKN050 BKN200 29/17 A2967 RMK AO2 SLP038 T02940167
KAUS 242053Z 17012KT 10SM SCT050 SCT080 BKN200 29/17 A2969 RMK AO2 SLP045 T02940172 58012
KAUS 241953Z 15014KT 10SM SCT050 SCT085 BKN200 29/17 A2971 RMK AO2 PK WND 17027/1856 SLP050 T02940167
KAUS 241853Z 15014G24KT 10SM SCT047 BKN200 29/16 A2972 RMK AO2 SLP054 T02940156
KAUS 241753Z 13013G20KT 10SM FEW042 BKN200 29/18 A2973 RMK AO2 SLP056 T02890183 10289 20222 56017
KAUS 241653Z 17010KT 10SM SCT035 BKN200 27/19 A2975 RMK AO2 SLP062 T02720189
KAUS 241553Z 18010G20KT 10SM FEW020 SCT033 BKN200 27/18 A2976 RMK AO2 SLP068 T02720183
KAUS 241453Z 16011KT 10SM SCT014 SCT095 BKN200 26/21 A2978 RMK AO2 SLP075 T02560211 50013
KAUS 241404Z 13006KT 10SM FEW013 SCT024 BKN200 24/21 A2979 RMK AO2 T02440211
KAUS 241353Z 13005KT 10SM SCT011 OVC024 24/21 A2978 RMK AO2 SLP076 T02390211
KAUS 241333Z 12006KT 10SM BKN010 OVC022 24/21 A2978 RMK AO2 T02390211
KAUS 241253Z 09005KT 8SM BKN009 OVC020 23/21 A2976 RMK AO2 SLP069 T02280206
KAUS 241231Z 00000KT 8SM BKN009 OVC020 23/21 A2975 RMK AO2 T02280206
KAUS 241153Z 06006KT 8SM BKN014 OVC022 22/20 A2974 RMK AO2 SLP062 60000 T02220200 10239 20217 58021
KAUS 241133Z 09005KT 10SM SCT014 BKN022 22/20 A2975 RMK AO2 T02220200
KAUS 241053Z 12005KT 10SM FEW020 SCT026 SCT048 22/20 A2977 RMK AO2 RAB08E33 SLP073 P0000 T02220200
KAUS 241042Z 12006KT 10SM FEW020 SCT026 SCT048 22/20 A2977 RMK AO2 RAB08E33 P0000 T02170200
KAUS 241008Z 11007KT 10SM -RA SCT021 BKN026 OVC048 23/20 A2979 RMK AO2 RAB08 P0000 T02280200
KAUS 240953Z 11005KT 10SM FEW027 SCT033 BKN046 23/20 A2980 RMK AO2 SLP082 T02280200
KAUS 240853Z 13009KT 10SM BKN050 23/20 A2981 RMK AO2 SLP083 60000 T02280200 58008
KAUS 240753Z 12006KT 10SM FEW022 OVC048 23/21 A2981 RMK AO2 RAE23 SLP085 P0000 T02280206